Time;durP1;ratioP1;P1;durP2;ratioP2;P2;SDS_P1;SDS_P2;PMS_P1;PMS_P2;Temp;Humidity;BMP_temperature;BMP_pressure;BME280_temperature;BME280_humidity;BME280_pressure;Samples;Min_cycle;Max_cycle;Signal;HPM_P1;HPM_P2
2023/08/10 00:01:46;;;;;;;3.20;2.20;;;19.80;89.80;;;;;;10355170;28;20485;-66
2023/08/10 00:06:47;;;;;;;5.07;2.37;;;19.80;89.80;;;;;;10357172;28;20423;-66
2023/08/10 00:11:48;;;;;;;4.63;2.30;;;19.80;90.00;;;;;;10356932;28;20408;-65
2023/08/10 00:16:49;;;;;;;5.23;2.37;;;19.80;90.00;;;;;;10355735;28;20479;-66
2023/08/10 00:21:49;;;;;;;3.73;2.50;;;19.80;90.00;;;;;;10355148;28;20477;-65
2023/08/10 00:26:50;;;;;;;4.40;2.30;;;19.80;90.00;;;;;;10358859;28;20404;-66
2023/08/10 00:31:51;;;;;;;3.58;2.30;;;19.80;90.00;;;;;;10350416;28;20419;-65
2023/08/10 00:36:52;;;;;;;3.87;2.33;;;19.80;90.00;;;;;;10355416;28;20413;-66
2023/08/10 00:41:53;;;;;;;3.77;2.30;;;19.80;90.00;;;;;;10351447;28;20405;-66
2023/08/10 00:46:54;;;;;;;3.93;2.40;;;19.70;90.00;;;;;;10352997;28;21232;-66
2023/08/10 00:51:55;;;;;;;4.05;2.30;;;19.70;90.00;;;;;;10353466;28;20414;-66
2023/08/10 00:56:56;;;;;;;4.90;2.40;;;19.70;90.10;;;;;;10336624;28;20460;-66
2023/08/10 01:01:56;;;;;;;3.53;2.20;;;19.70;90.10;;;;;;10356578;28;20409;-65
2023/08/10 01:07:19;;;;;;;3.33;2.10;;;19.60;90.10;;;;;;10341037;28;20772;-66
2023/08/10 01:12:33;;;;;;;3.88;2.28;;;19.60;90.10;;;;;;10352511;28;20492;-65
2023/08/10 01:17:39;;;;;;;4.50;2.27;;;19.60;90.20;;;;;;10355896;28;20412;-66
2023/08/10 01:22:55;;;;;;;4.20;2.28;;;19.60;90.20;;;;;;10352241;28;20768;-66
2023/08/10 01:27:56;;;;;;;4.38;2.20;;;19.60;90.20;;;;;;10358801;28;20405;-66
2023/08/10 01:32:57;;;;;;;4.28;2.30;;;19.60;90.20;;;;;;10354720;28;20484;-65
2023/08/10 01:37:57;;;;;;;3.70;2.50;;;19.60;90.20;;;;;;10350576;28;20784;-66
2023/08/10 01:42:58;;;;;;;3.27;2.40;;;19.60;90.30;;;;;;10353608;28;20404;-65
2023/08/10 01:48:03;;;;;;;4.47;2.50;;;19.50;90.20;;;;;;10356053;28;20417;-65
2023/08/10 01:53:08;;;;;;;3.10;2.17;;;19.50;90.20;;;;;;10350665;28;20567;-66
2023/08/10 01:58:09;;;;;;;4.05;2.28;;;19.50;90.30;;;;;;10351955;28;20405;-66
2023/08/10 02:03:09;;;;;;;4.68;2.33;;;19.50;90.30;;;;;;10354125;28;20768;-66
2023/08/10 02:08:10;;;;;;;3.47;2.00;;;19.50;90.30;;;;;;10352603;28;20409;-66
2023/08/10 02:13:11;;;;;;;3.20;2.03;;;19.40;90.30;;;;;;10330661;28;20416;-66
2023/08/10 02:18:12;;;;;;;4.72;2.20;;;19.40;90.60;;;;;;10352139;28;20488;-66
2023/08/10 02:23:13;;;;;;;3.55;2.13;;;19.40;90.30;;;;;;10353585;28;20960;-66
2023/08/10 02:28:14;;;;;;;3.80;2.30;;;19.40;90.30;;;;;;10355370;28;20395;-66
2023/08/10 02:33:14;;;;;;;3.70;2.10;;;19.40;90.40;;;;;;10351066;28;20422;-65
2023/08/10 02:38:15;;;;;;;3.27;2.03;;;19.40;90.40;;;;;;10354311;28;20444;-66
2023/08/10 02:43:15;;;;;;;4.13;2.23;;;19.40;90.40;;;;;;10331839;28;20402;-66
2023/08/10 02:48:16;;;;;;;3.33;2.20;;;19.40;90.40;;;;;;10351655;28;20433;-66
2023/08/10 02:53:17;;;;;;;3.80;2.10;;;19.30;90.40;;;;;;10351207;28;20781;-66
2023/08/10 02:58:20;;;;;;;3.50;2.30;;;19.30;90.40;;;;;;10351461;28;20430;-66
2023/08/10 03:03:21;;;;;;;3.00;2.20;;;19.30;90.50;;;;;;10349188;28;20470;-66
2023/08/10 03:08:23;;;;;;;3.00;2.10;;;19.30;90.50;;;;;;10351005;28;20423;-66
2023/08/10 03:13:24;;;;;;;4.38;2.30;;;19.20;90.50;;;;;;10352451;28;20416;-66
2023/08/10 03:18:25;;;;;;;2.90;2.37;;;19.20;90.50;;;;;;10348033;28;20796;-66
2023/08/10 03:23:26;;;;;;;2.95;2.10;;;19.20;90.40;;;;;;10349774;28;20985;-66
2023/08/10 03:28:27;;;;;;;3.53;2.20;;;19.20;90.50;;;;;;10346126;28;20488;-66
2023/08/10 03:33:28;;;;;;;3.20;2.13;;;19.20;90.50;;;;;;10332746;28;20845;-66
2023/08/10 03:38:28;;;;;;;3.95;2.15;;;19.20;90.50;;;;;;10349100;28;20422;-65
2023/08/10 03:43:29;;;;;;;3.22;2.03;;;19.20;90.50;;;;;;10347470;28;20420;-66
2023/08/10 03:53:32;;;;;;;3.20;2.42;;;19.10;90.60;;;;;;10323361;28;20438;-66
2023/08/10 03:58:33;;;;;;;3.93;2.10;;;19.10;90.60;;;;;;10318651;28;20438;-66
2023/08/10 04:03:34;;;;;;;3.10;2.43;;;19.10;90.60;;;;;;10320977;28;20804;-66
2023/08/10 04:08:34;;;;;;;4.03;2.33;;;19.10;90.60;;;;;;10319920;28;20418;-66
2023/08/10 04:13:35;;;;;;;3.50;2.27;;;19.10;90.70;;;;;;10318972;28;20425;-68
2023/08/10 04:18:36;;;;;;;4.10;2.40;;;19.10;90.70;;;;;;10319625;28;20834;-68
2023/08/10 04:23:36;;;;;;;3.38;2.33;;;19.00;90.70;;;;;;10322054;28;20406;-68
2023/08/10 04:28:37;;;;;;;4.35;2.45;;;19.10;90.70;;;;;;10316608;28;20426;-68
2023/08/10 04:33:38;;;;;;;3.40;2.50;;;19.10;90.80;;;;;;10317206;28;20883;-68
2023/08/10 04:38:38;;;;;;;2.77;2.40;;;19.10;90.80;;;;;;10319202;28;20418;-69
2023/08/10 04:43:39;;;;;;;4.77;2.53;;;19.10;90.80;;;;;;10317750;28;20841;-68
2023/08/10 04:48:40;;;;;;;3.40;2.50;;;19.00;90.80;;;;;;10321278;28;20413;-68
2023/08/10 04:53:40;;;;;;;4.10;2.63;;;19.00;90.80;;;;;;10360352;28;20432;-67
2023/08/10 04:58:41;;;;;;;3.15;2.35;;;19.00;90.80;;;;;;10352157;28;20916;-66
2023/08/10 05:03:41;;;;;;;4.72;2.88;;;19.00;90.90;;;;;;10362605;28;20418;-66
2023/08/10 05:08:42;;;;;;;4.80;2.42;;;19.00;90.80;;;;;;10359705;28;20423;-66
2023/08/10 05:13:43;;;;;;;3.30;2.50;;;19.00;90.80;;;;;;10348465;28;20436;-66
2023/08/10 05:18:44;;;;;;;3.33;2.60;;;19.00;90.90;;;;;;10357753;28;20900;-66
2023/08/10 05:23:45;;;;;;;4.63;2.90;;;19.00;90.80;;;;;;10357599;28;20412;-66
2023/08/10 05:28:46;;;;;;;4.00;2.88;;;19.00;90.90;;;;;;10353838;28;20451;-66
2023/08/10 05:33:46;;;;;;;5.10;3.00;;;19.00;90.90;;;;;;10359453;28;20456;-65
2023/08/10 05:38:47;;;;;;;5.00;2.60;;;18.80;90.90;;;;;;10360316;28;20430;-66
2023/08/10 05:43:49;;;;;;;4.43;2.78;;;19.00;90.90;;;;;;10360456;28;20416;-66
2023/08/10 05:48:50;;;;;;;3.30;2.50;;;19.00;90.90;;;;;;10337298;28;20499;-66
2023/08/10 05:53:50;;;;;;;4.67;2.80;;;19.00;90.90;;;;;;10359308;28;20424;-66
2023/08/10 05:58:51;;;;;;;3.77;3.10;;;19.00;90.90;;;;;;10348332;28;20733;-66
2023/08/10 06:03:52;;;;;;;4.17;2.50;;;19.00;91.00;;;;;;10341919;28;20455;-66
2023/08/10 06:08:52;;;;;;;4.22;3.20;;;19.00;91.00;;;;;;10356285;28;21002;-66
2023/08/10 06:13:53;;;;;;;3.88;2.70;;;19.00;91.00;;;;;;10352109;28;20408;-66
2023/08/10 06:18:54;;;;;;;3.90;2.95;;;19.00;91.00;;;;;;10354467;28;20423;-66
2023/08/10 06:23:54;;;;;;;4.50;2.95;;;19.00;91.10;;;;;;10355527;28;20936;-67
2023/08/10 06:28:55;;;;;;;4.50;3.17;;;19.00;91.10;;;;;;10352546;28;20416;-65
2023/08/10 06:33:56;;;;;;;3.53;2.97;;;19.10;91.10;;;;;;10346797;28;20404;-66
2023/08/10 06:38:57;;;;;;;3.40;2.90;;;19.10;91.10;;;;;;10352754;28;20955;-66
2023/08/10 06:43:58;;;;;;;3.73;2.77;;;19.10;91.10;;;;;;10356752;28;20423;-66
2023/08/10 06:48:58;;;;;;;5.90;3.00;;;19.10;91.10;;;;;;10356559;28;20428;-71
2023/08/10 06:53:59;;;;;;;4.67;2.90;;;19.00;91.30;;;;;;10353630;28;20420;-66
2023/08/10 06:58:59;;;;;;;4.30;2.70;;;19.10;91.40;;;;;;10349005;28;20422;-66
2023/08/10 07:04:00;;;;;;;4.47;2.70;;;19.10;91.40;;;;;;10362991;28;20405;-66
2023/08/10 07:09:01;;;;;;;5.10;2.85;;;19.10;91.30;;;;;;10351987;28;20404;-67
2023/08/10 07:14:02;;;;;;;4.03;2.78;;;19.10;91.20;;;;;;10353432;28;20448;-66
2023/08/10 07:19:03;;;;;;;2.97;2.60;;;19.10;91.10;;;;;;10359807;28;20728;-66
2023/08/10 07:24:05;;;;;;;4.47;2.87;;;19.20;91.10;;;;;;10370668;28;20412;-66
2023/08/10 07:29:06;;;;;;;5.20;2.60;;;19.20;91.10;;;;;;10351148;28;20458;-69
2023/08/10 07:34:09;;;;;;;3.83;2.75;;;19.20;91.10;;;;;;10364675;28;20416;-72
2023/08/10 07:39:09;;;;;;;5.43;2.83;;;19.20;91.10;;;;;;10368949;28;20904;-70
2023/08/10 07:44:10;;;;;;;4.90;2.90;;;19.20;91.70;;;;;;10365052;28;20512;-69
2023/08/10 07:49:11;;;;;;;3.93;2.83;;;19.20;91.50;;;;;;10370948;28;20416;-69
2023/08/10 07:54:12;;;;;;;4.87;2.93;;;19.20;91.40;;;;;;10355675;28;20492;-67
2023/08/10 07:59:13;;;;;;;5.88;3.08;;;19.30;91.30;;;;;;10352820;28;20427;-66
2023/08/10 08:04:14;;;;;;;4.40;2.60;;;19.30;91.20;;;;;;10365932;28;20407;-65
2023/08/10 08:09:15;;;;;;;4.57;2.60;;;19.30;91.20;;;;;;10367022;28;20404;-68
2023/08/10 08:14:15;;;;;;;4.63;2.70;;;19.40;91.20;;;;;;10353385;28;20404;-68
2023/08/10 08:19:17;;;;;;;3.63;2.80;;;19.40;91.10;;;;;;10349414;28;20938;-68
2023/08/10 08:24:18;;;;;;;3.97;2.83;;;19.40;91.00;;;;;;10368740;28;20467;-68
2023/08/10 08:29:19;;;;;;;3.80;3.03;;;19.40;91.00;;;;;;10359906;28;20470;-68
2023/08/10 08:34:19;;;;;;;4.40;2.97;;;19.50;90.90;;;;;;10365825;28;20855;-68
2023/08/10 08:39:20;;;;;;;4.45;2.90;;;19.50;90.90;;;;;;10361688;28;20421;-68
2023/08/10 08:44:21;;;;;;;3.15;2.72;;;19.50;90.90;;;;;;10359997;28;20428;-68
2023/08/10 08:49:23;;;;;;;3.83;3.07;;;19.50;90.80;;;;;;10365751;28;20531;-68
2023/08/10 08:54:24;;;;;;;3.63;2.75;;;19.60;90.80;;;;;;10361698;28;20680;-66
2023/08/10 08:59:26;;;;;;;4.35;2.70;;;19.60;90.80;;;;;;10361735;28;20486;-66
2023/08/10 09:04:26;;;;;;;4.32;3.00;;;19.70;90.80;;;;;;10357874;28;20428;-66
2023/08/10 09:09:27;;;;;;;4.20;3.03;;;19.70;90.70;;;;;;10365201;28;20409;-67
2023/08/10 09:14:28;;;;;;;3.80;2.60;;;19.70;90.70;;;;;;10360939;28;20415;-69
2023/08/10 09:19:29;;;;;;;3.42;2.63;;;19.80;90.70;;;;;;10362576;28;20777;-69
2023/08/10 09:24:29;;;;;;;3.17;2.70;;;19.80;90.60;;;;;;10354911;28;20926;-69
2023/08/10 09:29:30;;;;;;;5.77;2.70;;;19.80;90.60;;;;;;10346487;28;20417;-68
2023/08/10 09:34:31;;;;;;;3.03;2.53;;;19.80;90.60;;;;;;10364172;28;20866;-69
2023/08/10 09:39:32;;;;;;;4.43;2.53;;;19.90;90.60;;;;;;10345799;28;20470;-69
2023/08/10 09:44:50;;;;;;;3.20;2.60;;;19.90;90.50;;;;;;10358951;28;20522;-70
2023/08/10 09:50:05;;;;;;;3.70;2.60;;;19.90;90.50;;;;;;10357324;28;20880;-68
2023/08/10 09:55:07;;;;;;;4.70;2.60;;;20.00;90.40;;;;;;10357754;28;20415;-66
2023/08/10 10:00:18;;;;;;;3.57;2.60;;;20.00;90.40;;;;;;10358301;28;20471;-65
2023/08/10 10:05:21;;;;;;;3.60;2.70;;;20.10;90.40;;;;;;10359632;28;20516;-65
2023/08/10 10:10:21;;;;;;;3.50;2.10;;;20.10;90.40;;;;;;10359164;28;20492;-64
2023/08/10 10:15:23;;;;;;;7.80;2.00;;;20.10;90.00;;;;;;10349364;28;20832;-65
2023/08/10 10:20:24;;;;;;;5.05;1.73;;;20.30;89.60;;;;;;10355318;28;20439;-65
2023/08/10 10:25:25;;;;;;;2.90;1.55;;;20.40;88.40;;;;;;10350014;28;20416;-65
2023/08/10 10:30:25;;;;;;;4.28;1.73;;;20.60;87.50;;;;;;10362470;28;20405;-65
2023/08/10 10:35:32;;;;;;;4.05;1.85;;;20.70;87.30;;;;;;10360045;28;20792;-65
2023/08/10 10:40:34;;;;;;;8.57;2.53;;;20.70;88.10;;;;;;10340326;28;20507;-66
2023/08/10 10:45:42;;;;;;;4.35;2.10;;;20.60;87.60;;;;;;10361240;28;20534;-66
2023/08/10 10:50:43;;;;;;;2.77;1.80;;;20.60;87.90;;;;;;10357332;28;20428;-66
2023/08/10 10:55:45;;;;;;;3.22;1.95;;;20.80;86.70;;;;;;10362960;28;20428;-68
2023/08/10 11:00:46;;;;;;;4.32;2.13;;;20.90;85.70;;;;;;10364688;28;20416;-67
2023/08/10 11:05:48;;;;;;;4.30;1.88;;;20.90;85.50;;;;;;10351143;28;20778;-67
2023/08/10 11:10:51;;;;;;;6.10;1.90;;;21.00;86.30;;;;;;10370521;28;20419;-67
2023/08/10 11:15:52;;;;;;;5.07;2.20;;;21.00;86.40;;;;;;10370607;28;20876;-66
2023/08/10 11:20:52;;;;;;;3.30;2.00;;;21.10;86.40;;;;;;10365257;28;20843;-67
2023/08/10 11:25:54;;;;;;;3.70;2.00;;;21.10;86.30;;;;;;10368666;28;20399;-67
2023/08/10 11:31:01;;;;;;;5.40;2.47;;;21.20;87.20;;;;;;10367481;28;20455;-67
2023/08/10 11:36:03;;;;;;;6.85;2.40;;;21.20;86.80;;;;;;10347791;28;20405;-67
2023/08/10 11:41:03;;;;;;;4.83;2.30;;;21.40;86.90;;;;;;10360167;28;20467;-67
2023/08/10 11:46:04;;;;;;;6.27;2.70;;;21.50;86.40;;;;;;10366425;28;20408;-67
2023/08/10 11:51:07;;;;;;;5.47;2.30;;;21.60;87.10;;;;;;10367844;28;20447;-66
2023/08/10 11:56:08;;;;;;;5.30;2.85;;;21.70;86.70;;;;;;10351765;28;20448;-67
2023/08/10 12:01:11;;;;;;;5.28;2.70;;;21.90;85.00;;;;;;10350607;28;20499;-69
2023/08/10 12:06:15;;;;;;;3.93;2.77;;;22.00;85.40;;;;;;10364811;28;20400;-67
2023/08/10 12:11:19;;;;;;;5.17;3.20;;;22.10;86.30;;;;;;10364305;28;20475;-68
2023/08/10 12:16:20;;;;;;;5.93;3.10;;;22.10;85.70;;;;;;10364337;28;20474;-70
2023/08/10 12:21:21;;;;;;;4.75;2.88;;;22.20;86.40;;;;;;10352725;28;20405;-68
2023/08/10 12:26:22;;;;;;;5.03;3.20;;;22.20;86.00;;;;;;10365714;28;20455;-68
2023/08/10 12:31:25;;;;;;;7.65;3.10;;;22.30;85.90;;;;;;10361974;28;20512;-68
2023/08/10 12:36:26;;;;;;;5.85;3.28;;;22.40;86.50;;;;;;10347043;28;20465;-66
2023/08/10 12:41:28;;;;;;;5.15;3.30;;;22.40;86.70;;;;;;10349130;28;20498;-65
2023/08/10 12:46:29;;;;;;;6.00;3.60;;;22.60;86.50;;;;;;10363454;28;20515;-66
2023/08/10 12:51:29;;;;;;;6.23;3.57;;;22.60;86.00;;;;;;10346433;28;20472;-68
2023/08/10 12:56:31;;;;;;;6.40;3.40;;;22.50;85.60;;;;;;10362542;28;20419;-69
2023/08/10 13:01:32;;;;;;;5.22;3.20;;;22.70;84.80;;;;;;10350037;28;20405;-67
2023/08/10 13:06:34;;;;;;;5.18;3.22;;;23.00;84.50;;;;;;10361926;28;20835;-67
2023/08/10 13:11:36;;;;;;;4.83;3.53;;;23.00;85.90;;;;;;10348637;28;20952;-67
2023/08/10 13:16:36;;;;;;;6.53;3.60;;;23.00;84.50;;;;;;10360756;28;20499;-66
2023/08/10 13:21:38;;;;;;;6.20;3.53;;;23.00;84.50;;;;;;10360756;28;20414;-67
2023/08/10 13:26:38;;;;;;;4.85;3.38;;;23.00;84.10;;;;;;10361936;28;20837;-68
2023/08/10 13:31:39;;;;;;;5.47;3.67;;;23.00;85.40;;;;;;10356741;28;20455;-68
2023/08/10 13:36:40;;;;;;;8.73;4.70;;;23.10;83.70;;;;;;10359332;28;20783;-67
2023/08/10 13:41:41;;;;;;;5.20;3.72;;;22.90;85.10;;;;;;10360325;28;20436;-68
2023/08/10 13:46:42;;;;;;;4.85;3.45;;;23.10;85.80;;;;;;10356999;28;20471;-67
2023/08/10 13:51:44;;;;;;;4.97;3.10;;;23.00;84.50;;;;;;10359685;28;20420;-67
2023/08/10 13:57:06;;;;;;;7.10;3.57;;;23.00;85.40;;;;;;10359430;28;20417;-68
2023/08/10 14:02:08;;;;;;;7.40;3.40;;;23.00;84.70;;;;;;10359932;28;20407;-68
2023/08/10 14:07:08;;;;;;;6.57;3.47;;;23.00;84.80;;;;;;10359180;28;20480;-68
2023/08/10 14:12:09;;;;;;;5.47;3.00;;;23.00;84.70;;;;;;10359211;28;20544;-68
2023/08/10 14:17:09;;;;;;;5.50;3.30;;;23.00;85.50;;;;;;10358958;28;20420;-69
2023/08/10 14:22:10;;;;;;;5.70;3.30;;;22.90;84.80;;;;;;10361548;28;20431;-67
2023/08/10 14:27:11;;;;;;;6.97;3.20;;;22.90;85.20;;;;;;10360847;28;20445;-67
2023/08/10 14:32:11;;;;;;;6.30;3.28;;;22.90;85.70;;;;;;10362556;28;20593;-69
2023/08/10 14:37:12;;;;;;;6.20;3.25;;;22.90;85.40;;;;;;10365091;28;20413;-68
2023/08/10 14:42:13;;;;;;;6.53;3.20;;;22.90;85.00;;;;;;10362268;28;20420;-68
2023/08/10 14:47:13;;;;;;;7.17;3.40;;;23.00;85.40;;;;;;10358072;28;20465;-67
2023/08/10 14:52:14;;;;;;;5.67;3.33;;;23.00;85.40;;;;;;10367900;28;20417;-68
2023/08/10 14:57:16;;;;;;;5.23;3.27;;;23.00;84.30;;;;;;10345468;28;20444;-68
2023/08/10 15:02:17;;;;;;;6.55;3.53;;;23.00;85.00;;;;;;10349015;28;20432;-67
2023/08/10 15:07:17;;;;;;;5.82;3.08;;;23.00;83.80;;;;;;10364315;28;20448;-67
2023/08/10 15:12:18;;;;;;;8.52;3.92;;;23.00;83.80;;;;;;10364596;28;20432;-71
2023/08/10 15:17:18;;;;;;;5.53;3.23;;;22.90;84.20;;;;;;10363641;28;20939;-68
2023/08/10 15:22:19;;;;;;;5.63;3.00;;;22.90;84.00;;;;;;10352510;28;20495;-68
2023/08/10 15:27:20;;;;;;;5.17;3.30;;;22.90;84.50;;;;;;10348779;28;20409;-68
2023/08/10 15:32:21;;;;;;;5.70;3.40;;;22.90;83.70;;;;;;10362566;28;20412;-68
2023/08/10 15:37:22;;;;;;;6.03;3.27;;;22.90;84.40;;;;;;10356645;28;20473;-68
2023/08/10 15:42:22;;;;;;;6.77;3.10;;;22.90;84.10;;;;;;10364214;28;20455;-68
2023/08/10 15:47:23;;;;;;;6.43;3.00;;;22.80;84.00;;;;;;10353933;28;20415;-69
2023/08/10 15:52:24;;;;;;;4.67;3.20;;;22.80;84.10;;;;;;10365611;28;20429;-68
2023/08/10 15:57:24;;;;;;;6.03;3.23;;;22.80;83.90;;;;;;10357795;28;20539;-69
2023/08/10 16:02:25;;;;;;;4.60;2.90;;;22.80;83.70;;;;;;10361223;28;20412;-72
2023/08/10 16:07:26;;;;;;;4.90;3.03;;;22.90;83.80;;;;;;10361029;28;20412;-69
2023/08/10 16:12:26;;;;;;;5.10;3.47;;;22.90;83.90;;;;;;10367489;28;21020;-67
2023/08/10 16:17:27;;;;;;;5.50;2.83;;;22.90;82.90;;;;;;10367738;28;20425;-67
2023/08/10 16:22:28;;;;;;;3.87;2.60;;;22.80;83.70;;;;;;10356711;28;20415;-67
2023/08/10 16:27:28;;;;;;;7.47;2.97;;;22.80;84.40;;;;;;10351093;28;20996;-67
2023/08/10 16:32:29;;;;;;;6.53;2.83;;;22.70;85.00;;;;;;10367229;28;20896;-68
2023/08/10 16:37:29;;;;;;;4.20;2.50;;;22.60;85.60;;;;;;10357684;28;20416;-67
2023/08/10 16:42:30;;;;;;;5.22;2.70;;;22.60;85.30;;;;;;10345865;28;20412;-68
2023/08/10 16:47:31;;;;;;;5.63;2.90;;;22.50;84.90;;;;;;10363695;28;20499;-67
2023/08/10 16:52:33;;;;;;;5.20;2.78;;;22.50;85.20;;;;;;10365216;28;20867;-68
2023/08/10 16:57:34;;;;;;;3.93;2.70;;;22.40;85.80;;;;;;10359301;28;21130;-68
2023/08/10 17:02:35;;;;;;;4.50;2.80;;;22.40;85.50;;;;;;10350796;28;20511;-67
2023/08/10 17:07:36;;;;;;;5.63;2.70;;;22.40;84.80;;;;;;10361397;28;20413;-67
2023/08/10 17:12:37;;;;;;;6.77;2.87;;;22.40;85.70;;;;;;10341141;28;20440;-69
2023/08/10 17:17:38;;;;;;;5.60;2.60;;;22.30;86.10;;;;;;10362806;28;21018;-66
2023/08/10 17:22:38;;;;;;;4.70;2.50;;;22.30;85.70;;;;;;10357443;28;20401;-66
2023/08/10 17:27:40;;;;;;;4.23;2.73;;;22.30;86.40;;;;;;10359817;28;20783;-63
2023/08/10 17:32:40;;;;;;;4.72;2.58;;;22.30;86.40;;;;;;10358982;28;20405;-64
2023/08/10 17:37:41;;;;;;;5.35;2.80;;;22.30;86.60;;;;;;10359214;28;20424;-65
2023/08/10 17:42:41;;;;;;;3.73;2.70;;;22.20;86.70;;;;;;10358473;28;20423;-64
2023/08/10 17:47:42;;;;;;;3.87;2.77;;;22.20;86.90;;;;;;10359623;28;20411;-65
2023/08/10 17:52:43;;;;;;;2.97;2.40;;;22.20;87.60;;;;;;10346693;28;20685;-65
2023/08/10 17:57:43;;;;;;;4.40;2.70;;;22.20;87.10;;;;;;10362451;28;20503;-64
2023/08/10 18:02:44;;;;;;;4.37;2.60;;;22.20;87.30;;;;;;10364124;28;20546;-66
2023/08/10 18:07:45;;;;;;;3.77;2.50;;;22.20;87.60;;;;;;10342561;28;20419;-65
2023/08/10 18:12:45;;;;;;;3.93;2.67;;;22.10;88.50;;;;;;10356486;28;20423;-66
2023/08/10 18:17:46;;;;;;;4.50;2.60;;;22.10;88.60;;;;;;10362572;28;20499;-64
2023/08/10 18:22:47;;;;;;;4.60;2.70;;;22.10;88.10;;;;;;10354438;28;20401;-65
2023/08/10 18:27:48;;;;;;;3.80;2.70;;;22.10;88.20;;;;;;10354747;28;20455;-65
2023/08/10 18:32:48;;;;;;;3.10;2.80;;;22.10;88.90;;;;;;10355559;28;20427;-66
2023/08/10 18:37:49;;;;;;;3.87;2.67;;;22.10;88.40;;;;;;10356242;28;20405;-65
2023/08/10 18:42:51;;;;;;;3.63;2.80;;;22.00;88.50;;;;;;10358075;28;20431;-65
2023/08/10 18:47:53;;;;;;;3.22;2.83;;;22.00;88.60;;;;;;10351826;28;20413;-65
2023/08/10 18:52:53;;;;;;;3.00;2.70;;;22.00;88.70;;;;;;10356490;28;20850;-65
2023/08/10 18:57:54;;;;;;;4.28;2.78;;;22.00;88.90;;;;;;10357322;28;20517;-65
2023/08/10 19:02:54;;;;;;;3.80;3.00;;;21.90;89.00;;;;;;10355090;28;20405;-66
2023/08/10 19:07:55;;;;;;;3.80;2.80;;;21.90;89.10;;;;;;10351071;28;20412;-65
2023/08/10 19:12:56;;;;;;;3.90;2.70;;;21.90;89.20;;;;;;10352969;28;20414;-65
2023/08/10 19:17:56;;;;;;;3.50;3.00;;;21.90;89.30;;;;;;10358937;28;20527;-67
2023/08/10 19:22:57;;;;;;;3.23;2.90;;;21.80;89.50;;;;;;10356613;28;20410;-66
2023/08/10 19:27:58;;;;;;;4.33;3.00;;;21.80;89.60;;;;;;10357371;28;20405;-67
2023/08/10 19:32:58;;;;;;;3.60;2.90;;;21.80;89.70;;;;;;10354663;28;20771;-64
2023/08/10 19:37:59;;;;;;;4.30;3.20;;;21.70;89.70;;;;;;10357090;28;20486;-65
2023/08/10 19:43:01;;;;;;;4.20;3.20;;;21.70;89.90;;;;;;10361092;28;20451;-65
2023/08/10 19:48:02;;;;;;;3.80;3.30;;;21.70;90.00;;;;;;10354974;28;20411;-65
2023/08/10 19:53:04;;;;;;;4.90;3.45;;;21.70;90.00;;;;;;10356805;28;20415;-65
2023/08/10 19:58:04;;;;;;;4.00;3.60;;;21.60;90.00;;;;;;10355423;28;20448;-67
2023/08/10 20:03:05;;;;;;;4.07;3.55;;;21.60;90.00;;;;;;10353139;28;20413;-67
2023/08/10 20:08:06;;;;;;;4.43;3.70;;;21.60;90.10;;;;;;10360080;28;20442;-66
2023/08/10 20:13:07;;;;;;;4.13;3.70;;;21.60;90.10;;;;;;10355575;28;20496;-65
2023/08/10 20:18:08;;;;;;;4.60;3.77;;;21.50;90.10;;;;;;10361267;28;20495;-67
2023/08/10 20:23:08;;;;;;;5.00;4.10;;;21.50;90.20;;;;;;10354932;28;20401;-67
2023/08/10 20:28:09;;;;;;;4.80;3.50;;;21.50;90.20;;;;;;10336091;28;21035;-67
2023/08/10 20:33:12;;;;;;;4.22;3.83;;;21.50;90.30;;;;;;10352539;28;20953;-67
2023/08/10 20:38:13;;;;;;;4.63;3.90;;;21.40;90.30;;;;;;10353353;28;20883;-67
2023/08/10 20:43:14;;;;;;;5.10;4.20;;;21.40;90.30;;;;;;10352598;28;20405;-67
2023/08/10 20:48:14;;;;;;;4.37;3.90;;;21.40;90.40;;;;;;10344142;28;20749;-67
2023/08/10 20:53:15;;;;;;;5.00;3.80;;;21.40;90.40;;;;;;10354593;28;20492;-67
2023/08/10 20:58:15;;;;;;;4.67;4.20;;;21.40;90.50;;;;;;10357116;28;20415;-66
2023/08/10 21:03:16;;;;;;;4.47;4.07;;;21.40;90.50;;;;;;10353322;28;21182;-66
2023/08/10 21:08:17;;;;;;;4.60;3.97;;;21.20;90.60;;;;;;10354059;28;20454;-67
2023/08/10 21:13:17;;;;;;;4.63;3.93;;;21.30;90.70;;;;;;10352929;28;20405;-66
2023/08/10 21:18:18;;;;;;;4.83;4.10;;;21.30;90.70;;;;;;10339785;28;20790;-68
2023/08/10 21:23:21;;;;;;;5.30;4.30;;;21.30;90.80;;;;;;10355195;28;20490;-65
2023/08/10 21:28:23;;;;;;;4.78;4.35;;;21.20;90.80;;;;;;10351543;28;20760;-67
2023/08/10 21:33:24;;;;;;;5.30;4.32;;;21.20;90.80;;;;;;10354314;28;20404;-67
2023/08/10 21:38:24;;;;;;;5.10;4.30;;;21.10;90.80;;;;;;10350882;28;20428;-67
2023/08/10 21:43:25;;;;;;;5.03;4.53;;;21.10;90.90;;;;;;10342089;28;20408;-67
2023/08/10 21:48:26;;;;;;;4.83;4.33;;;21.10;90.90;;;;;;10357143;28;20407;-67
2023/08/10 21:53:26;;;;;;;5.10;4.60;;;21.10;90.90;;;;;;10348646;28;20416;-67
2023/08/10 21:58:27;;;;;;;5.57;4.67;;;21.10;91.20;;;;;;10333928;28;20780;-66
2023/08/10 22:03:28;;;;;;;5.67;5.17;;;21.00;90.90;;;;;;10357269;28;20408;-67
2023/08/10 22:08:28;;;;;;;5.83;5.20;;;21.00;91.00;;;;;;10356911;28;20404;-67
2023/08/10 22:13:29;;;;;;;6.37;4.70;;;21.00;90.90;;;;;;10335012;28;20410;-67
2023/08/10 22:18:34;;;;;;;6.20;5.13;;;21.00;90.90;;;;;;10354761;28;20458;-67
2023/08/10 22:23:34;;;;;;;5.60;5.00;;;21.00;90.90;;;;;;10356896;28;20444;-67
2023/08/10 22:28:35;;;;;;;7.50;5.27;;;20.90;90.90;;;;;;10358944;28;20510;-67
2023/08/10 22:33:36;;;;;;;6.43;5.60;;;20.90;90.90;;;;;;10356670;28;20499;-67
2023/08/10 22:38:37;;;;;;;6.45;5.40;;;20.90;90.90;;;;;;10351747;28;20421;-67
2023/08/10 22:43:39;;;;;;;7.57;5.85;;;20.90;90.90;;;;;;10350764;28;20419;-67
2023/08/10 22:48:40;;;;;;;6.33;5.60;;;20.80;90.90;;;;;;10350336;28;20412;-67
2023/08/10 22:53:40;;;;;;;6.40;5.50;;;20.80;90.90;;;;;;10356135;28;20412;-66
2023/08/10 22:58:41;;;;;;;6.50;5.30;;;20.80;90.90;;;;;;10352492;28;20416;-67
2023/08/10 23:03:43;;;;;;;6.27;5.33;;;20.80;90.90;;;;;;10356277;28;20412;-66
2023/08/10 23:08:44;;;;;;;5.60;5.00;;;20.80;90.90;;;;;;10341659;28;20786;-67
2023/08/10 23:13:44;;;;;;;6.00;5.10;;;20.70;90.90;;;;;;10355044;28;20404;-67
2023/08/10 23:18:45;;;;;;;5.93;5.33;;;20.70;91.00;;;;;;10356065;28;20800;-66
2023/08/10 23:23:46;;;;;;;6.50;5.57;;;20.70;91.00;;;;;;10356117;28;20411;-67
2023/08/10 23:28:46;;;;;;;7.23;5.97;;;20.70;91.00;;;;;;10338635;28;20396;-67
2023/08/10 23:33:47;;;;;;;7.60;5.53;;;20.60;91.00;;;;;;10355929;28;20600;-67
2023/08/10 23:38:48;;;;;;;6.83;5.70;;;20.60;91.00;;;;;;10352850;28;20815;-67
2023/08/10 23:43:49;;;;;;;7.20;5.87;;;20.60;91.00;;;;;;10354721;28;20443;-65
2023/08/10 23:48:49;;;;;;;6.78;5.90;;;20.60;91.00;;;;;;10353115;28;20426;-65
2023/08/10 23:53:50;;;;;;;6.18;5.50;;;20.60;91.00;;;;;;10339708;28;20482;-67
2023/08/10 23:58:51;;;;;;;6.80;5.97;;;20.50;91.00;;;;;;10350264;28;20419;-67
